sensor_id;sensor_type;location;lat;lon;timestamp;P1;durP1;ratioP1;P2;durP2;ratioP2
41275;SDS011;27010;47.718;12.912;2024-01-16T00:00:41;2.83;;;1.57;;
41275;SDS011;27010;47.718;12.912;2024-01-16T00:03:43;2.40;;;1.67;;
41275;SDS011;27010;47.718;12.912;2024-01-16T00:06:45;2.43;;;1.60;;
41275;SDS011;27010;47.718;12.912;2024-01-16T00:09:48;2.63;;;1.60;;
41275;SDS011;27010;47.718;12.912;2024-01-16T00:12:54;3.17;;;1.60;;
41275;SDS011;27010;47.718;12.912;2024-01-16T00:16:01;3.10;;;1.67;;
41275;SDS011;27010;47.718;12.912;2024-01-16T00:19:05;5.10;;;1.97;;
41275;SDS011;27010;47.718;12.912;2024-01-16T00:22:08;3.90;;;1.93;;
41275;SDS011;27010;47.718;12.912;2024-01-16T00:25:10;4.03;;;1.90;;
41275;SDS011;27010;47.718;12.912;2024-01-16T00:28:13;5.00;;;2.33;;
41275;SDS011;27010;47.718;12.912;2024-01-16T00:31:21;2.43;;;1.73;;
41275;SDS011;27010;47.718;12.912;2024-01-16T00:34:25;3.77;;;1.40;;
41275;SDS011;27010;47.718;12.912;2024-01-16T00:37:27;3.57;;;2.10;;
41275;SDS011;27010;47.718;12.912;2024-01-16T00:40:31;3.47;;;1.70;;
41275;SDS011;27010;47.718;12.912;2024-01-16T00:43:34;2.87;;;2.10;;
41275;SDS011;27010;47.718;12.912;2024-01-16T00:46:36;3.30;;;2.03;;
41275;SDS011;27010;47.718;12.912;2024-01-16T00:49:39;2.43;;;1.90;;
41275;SDS011;27010;47.718;12.912;2024-01-16T00:52:41;3.20;;;1.87;;
41275;SDS011;27010;47.718;12.912;2024-01-16T00:55:43;4.10;;;1.57;;
41275;SDS011;27010;47.718;12.912;2024-01-16T00:58:45;2.70;;;1.93;;
41275;SDS011;27010;47.718;12.912;2024-01-16T01:01:47;2.80;;;1.90;;
41275;SDS011;27010;47.718;12.912;2024-01-16T01:04:49;2.33;;;1.77;;
41275;SDS011;27010;47.718;12.912;2024-01-16T01:07:51;4.30;;;2.13;;
41275;SDS011;27010;47.718;12.912;2024-01-16T01:10:54;3.00;;;2.07;;
41275;SDS011;27010;47.718;12.912;2024-01-16T01:13:57;3.70;;;2.17;;
41275;SDS011;27010;47.718;12.912;2024-01-16T01:16:59;4.03;;;1.77;;
41275;SDS011;27010;47.718;12.912;2024-01-16T01:20:02;2.63;;;1.97;;
41275;SDS011;27010;47.718;12.912;2024-01-16T01:23:05;3.17;;;2.13;;
41275;SDS011;27010;47.718;12.912;2024-01-16T01:26:17;2.33;;;1.77;;
41275;SDS011;27010;47.718;12.912;2024-01-16T01:29:20;4.33;;;2.00;;
41275;SDS011;27010;47.718;12.912;2024-01-16T01:32:23;3.37;;;2.20;;
41275;SDS011;27010;47.718;12.912;2024-01-16T01:35:25;3.47;;;1.80;;
41275;SDS011;27010;47.718;12.912;2024-01-16T01:38:28;2.60;;;1.70;;
41275;SDS011;27010;47.718;12.912;2024-01-16T01:41:29;4.90;;;2.17;;
41275;SDS011;27010;47.718;12.912;2024-01-16T01:44:32;2.77;;;1.87;;
41275;SDS011;27010;47.718;12.912;2024-01-16T01:47:34;4.53;;;2.30;;
41275;SDS011;27010;47.718;12.912;2024-01-16T01:50:37;4.73;;;1.80;;
41275;SDS011;27010;47.718;12.912;2024-01-16T01:53:39;4.97;;;2.03;;
41275;SDS011;27010;47.718;12.912;2024-01-16T01:56:44;4.40;;;2.30;;
41275;SDS011;27010;47.718;12.912;2024-01-16T01:59:46;3.70;;;2.30;;
41275;SDS011;27010;47.718;12.912;2024-01-16T02:02:48;3.13;;;2.10;;
41275;SDS011;27010;47.718;12.912;2024-01-16T02:05:51;2.33;;;1.80;;
41275;SDS011;27010;47.718;12.912;2024-01-16T02:08:53;2.60;;;1.77;;
41275;SDS011;27010;47.718;12.912;2024-01-16T02:11:55;3.93;;;1.57;;
41275;SDS011;27010;47.718;12.912;2024-01-16T02:14:57;3.30;;;1.60;;
41275;SDS011;27010;47.718;12.912;2024-01-16T02:17:59;3.13;;;1.70;;
41275;SDS011;27010;47.718;12.912;2024-01-16T02:21:04;2.40;;;2.03;;
41275;SDS011;27010;47.718;12.912;2024-01-16T02:24:08;4.97;;;2.00;;
41275;SDS011;27010;47.718;12.912;2024-01-16T02:27:12;2.70;;;2.07;;
41275;SDS011;27010;47.718;12.912;2024-01-16T02:30:14;3.23;;;1.83;;
41275;SDS011;27010;47.718;12.912;2024-01-16T02:33:17;3.73;;;2.33;;
41275;SDS011;27010;47.718;12.912;2024-01-16T02:36:19;2.97;;;2.13;;
41275;SDS011;27010;47.718;12.912;2024-01-16T02:39:22;4.47;;;2.07;;
41275;SDS011;27010;47.718;12.912;2024-01-16T02:42:24;3.47;;;1.93;;
41275;SDS011;27010;47.718;12.912;2024-01-16T02:45:27;2.57;;;1.83;;
41275;SDS011;27010;47.718;12.912;2024-01-16T02:48:29;3.33;;;1.73;;
41275;SDS011;27010;47.718;12.912;2024-01-16T02:51:31;5.20;;;2.23;;
41275;SDS011;27010;47.718;12.912;2024-01-16T02:54:33;5.70;;;1.90;;
41275;SDS011;27010;47.718;12.912;2024-01-16T02:57:36;4.77;;;2.10;;
41275;SDS011;27010;47.718;12.912;2024-01-16T03:00:38;3.93;;;2.50;;
41275;SDS011;27010;47.718;12.912;2024-01-16T03:03:40;3.57;;;2.10;;
41275;SDS011;27010;47.718;12.912;2024-01-16T03:06:43;6.43;;;2.10;;
41275;SDS011;27010;47.718;12.912;2024-01-16T03:09:45;3.40;;;2.00;;
41275;SDS011;27010;47.718;12.912;2024-01-16T03:12:47;4.77;;;2.47;;
41275;SDS011;27010;47.718;12.912;2024-01-16T03:15:49;3.20;;;2.07;;
41275;SDS011;27010;47.718;12.912;2024-01-16T03:18:52;3.33;;;1.80;;
41275;SDS011;27010;47.718;12.912;2024-01-16T03:21:54;2.83;;;1.60;;
41275;SDS011;27010;47.718;12.912;2024-01-16T03:24:57;4.07;;;2.00;;
41275;SDS011;27010;47.718;12.912;2024-01-16T03:27:59;3.47;;;1.90;;
41275;SDS011;27010;47.718;12.912;2024-01-16T03:31:01;5.13;;;1.83;;
41275;SDS011;27010;47.718;12.912;2024-01-16T03:34:05;3.57;;;1.83;;
41275;SDS011;27010;47.718;12.912;2024-01-16T03:37:11;3.23;;;1.70;;
41275;SDS011;27010;47.718;12.912;2024-01-16T03:40:16;3.17;;;2.10;;
41275;SDS011;27010;47.718;12.912;2024-01-16T03:43:21;4.87;;;2.47;;
41275;SDS011;27010;47.718;12.912;2024-01-16T03:46:25;2.37;;;1.57;;
41275;SDS011;27010;47.718;12.912;2024-01-16T03:49:27;3.90;;;2.37;;
41275;SDS011;27010;47.718;12.912;2024-01-16T03:52:29;7.23;;;4.07;;
41275;SDS011;27010;47.718;12.912;2024-01-16T03:55:32;3.40;;;1.87;;
41275;SDS011;27010;47.718;12.912;2024-01-16T03:58:35;4.37;;;2.83;;
41275;SDS011;27010;47.718;12.912;2024-01-16T04:01:37;4.47;;;3.33;;
41275;SDS011;27010;47.718;12.912;2024-01-16T04:04:47;3.67;;;2.37;;
41275;SDS011;27010;47.718;12.912;2024-01-16T04:07:51;3.20;;;2.60;;
41275;SDS011;27010;47.718;12.912;2024-01-16T04:10:54;3.83;;;2.07;;
41275;SDS011;27010;47.718;12.912;2024-01-16T04:13:59;3.43;;;2.20;;
41275;SDS011;27010;47.718;12.912;2024-01-16T04:17:05;4.13;;;2.27;;
41275;SDS011;27010;47.718;12.912;2024-01-16T04:20:09;5.40;;;2.10;;
41275;SDS011;27010;47.718;12.912;2024-01-16T04:23:13;2.53;;;2.00;;
41275;SDS011;27010;47.718;12.912;2024-01-16T04:26:16;3.40;;;1.90;;
41275;SDS011;27010;47.718;12.912;2024-01-16T04:29:19;4.33;;;2.20;;
41275;SDS011;27010;47.718;12.912;2024-01-16T04:32:22;3.63;;;2.27;;
41275;SDS011;27010;47.718;12.912;2024-01-16T04:35:25;1.80;;;1.47;;
41275;SDS011;27010;47.718;12.912;2024-01-16T04:38:28;4.37;;;2.80;;
41275;SDS011;27010;47.718;12.912;2024-01-16T04:41:30;3.03;;;2.50;;
41275;SDS011;27010;47.718;12.912;2024-01-16T04:48:06;3.30;;;1.97;;
41275;SDS011;27010;47.718;12.912;2024-01-16T04:51:10;4.80;;;2.20;;
41275;SDS011;27010;47.718;12.912;2024-01-16T04:54:13;2.60;;;1.87;;
41275;SDS011;27010;47.718;12.912;2024-01-16T04:57:15;5.07;;;2.40;;
41275;SDS011;27010;47.718;12.912;2024-01-16T05:00:17;5.83;;;2.33;;
41275;SDS011;27010;47.718;12.912;2024-01-16T05:03:19;3.43;;;2.03;;
41275;SDS011;27010;47.718;12.912;2024-01-16T05:06:22;2.83;;;2.03;;
41275;SDS011;27010;47.718;12.912;2024-01-16T05:09:25;3.40;;;2.20;;
41275;SDS011;27010;47.718;12.912;2024-01-16T05:12:32;4.73;;;2.17;;
41275;SDS011;27010;47.718;12.912;2024-01-16T05:15:34;3.60;;;2.30;;
41275;SDS011;27010;47.718;12.912;2024-01-16T05:18:40;3.37;;;2.20;;
41275;SDS011;27010;47.718;12.912;2024-01-16T05:21:44;4.50;;;1.83;;
41275;SDS011;27010;47.718;12.912;2024-01-16T05:24:47;2.97;;;1.80;;
41275;SDS011;27010;47.718;12.912;2024-01-16T05:27:50;7.30;;;2.27;;
41275;SDS011;27010;47.718;12.912;2024-01-16T05:34:28;4.17;;;2.27;;
41275;SDS011;27010;47.718;12.912;2024-01-16T05:37:32;4.10;;;2.20;;
41275;SDS011;27010;47.718;12.912;2024-01-16T05:40:35;3.57;;;2.10;;
41275;SDS011;27010;47.718;12.912;2024-01-16T05:43:38;5.23;;;2.33;;
41275;SDS011;27010;47.718;12.912;2024-01-16T05:46:40;2.93;;;2.00;;
41275;SDS011;27010;47.718;12.912;2024-01-16T05:49:42;5.33;;;2.20;;
41275;SDS011;27010;47.718;12.912;2024-01-16T05:52:44;4.17;;;2.37;;
41275;SDS011;27010;47.718;12.912;2024-01-16T05:55:47;3.77;;;2.27;;
41275;SDS011;27010;47.718;12.912;2024-01-16T05:58:49;3.33;;;2.10;;
41275;SDS011;27010;47.718;12.912;2024-01-16T06:01:52;3.37;;;2.53;;
41275;SDS011;27010;47.718;12.912;2024-01-16T06:04:55;3.40;;;2.07;;
41275;SDS011;27010;47.718;12.912;2024-01-16T06:07:58;4.27;;;2.23;;
41275;SDS011;27010;47.718;12.912;2024-01-16T06:11:03;2.80;;;2.23;;
41275;SDS011;27010;47.718;12.912;2024-01-16T06:14:07;4.93;;;2.57;;
41275;SDS011;27010;47.718;12.912;2024-01-16T06:17:11;3.73;;;2.50;;
41275;SDS011;27010;47.718;12.912;2024-01-16T06:20:13;4.93;;;2.13;;
41275;SDS011;27010;47.718;12.912;2024-01-16T06:23:16;2.47;;;1.90;;
41275;SDS011;27010;47.718;12.912;2024-01-16T06:26:19;4.80;;;2.20;;
41275;SDS011;27010;47.718;12.912;2024-01-16T06:29:21;3.30;;;2.20;;
41275;SDS011;27010;47.718;12.912;2024-01-16T06:32:35;2.90;;;2.00;;
41275;SDS011;27010;47.718;12.912;2024-01-16T06:35:37;7.57;;;2.03;;
41275;SDS011;27010;47.718;12.912;2024-01-16T06:38:40;5.40;;;2.47;;
41275;SDS011;27010;47.718;12.912;2024-01-16T06:41:43;3.40;;;2.20;;
41275;SDS011;27010;47.718;12.912;2024-01-16T06:44:46;5.07;;;2.47;;
41275;SDS011;27010;47.718;12.912;2024-01-16T06:47:49;5.00;;;2.07;;
41275;SDS011;27010;47.718;12.912;2024-01-16T06:50:52;3.67;;;1.80;;
41275;SDS011;27010;47.718;12.912;2024-01-16T06:53:54;6.33;;;2.17;;
41275;SDS011;27010;47.718;12.912;2024-01-16T06:56:58;3.77;;;1.93;;
41275;SDS011;27010;47.718;12.912;2024-01-16T07:00:10;3.50;;;1.80;;
41275;SDS011;27010;47.718;12.912;2024-01-16T07:03:14;4.70;;;2.53;;
41275;SDS011;27010;47.718;12.912;2024-01-16T07:06:21;3.47;;;2.30;;
41275;SDS011;27010;47.718;12.912;2024-01-16T07:09:24;2.77;;;2.00;;
41275;SDS011;27010;47.718;12.912;2024-01-16T07:12:27;3.53;;;1.50;;
41275;SDS011;27010;47.718;12.912;2024-01-16T07:15:30;3.10;;;2.00;;
41275;SDS011;27010;47.718;12.912;2024-01-16T07:18:33;3.00;;;2.27;;
41275;SDS011;27010;47.718;12.912;2024-01-16T07:21:37;8.73;;;2.70;;
41275;SDS011;27010;47.718;12.912;2024-01-16T07:24:39;3.50;;;1.80;;
41275;SDS011;27010;47.718;12.912;2024-01-16T07:27:42;3.27;;;1.90;;
41275;SDS011;27010;47.718;12.912;2024-01-16T07:30:47;3.90;;;1.97;;
41275;SDS011;27010;47.718;12.912;2024-01-16T07:33:50;5.73;;;1.93;;
41275;SDS011;27010;47.718;12.912;2024-01-16T07:36:53;3.93;;;2.17;;
41275;SDS011;27010;47.718;12.912;2024-01-16T07:39:58;7.80;;;1.47;;
41275;SDS011;27010;47.718;12.912;2024-01-16T07:43:01;3.13;;;2.10;;
41275;SDS011;27010;47.718;12.912;2024-01-16T07:46:04;2.33;;;1.70;;
41275;SDS011;27010;47.718;12.912;2024-01-16T07:49:06;4.73;;;2.00;;
41275;SDS011;27010;47.718;12.912;2024-01-16T07:52:13;3.07;;;1.80;;
41275;SDS011;27010;47.718;12.912;2024-01-16T07:55:15;2.80;;;1.77;;
41275;SDS011;27010;47.718;12.912;2024-01-16T07:58:22;3.33;;;1.93;;
41275;SDS011;27010;47.718;12.912;2024-01-16T08:01:25;4.10;;;1.77;;
41275;SDS011;27010;47.718;12.912;2024-01-16T08:04:27;3.73;;;2.00;;
41275;SDS011;27010;47.718;12.912;2024-01-16T08:07:30;3.63;;;2.47;;
41275;SDS011;27010;47.718;12.912;2024-01-16T08:10:33;3.90;;;2.00;;
41275;SDS011;27010;47.718;12.912;2024-01-16T08:13:35;2.13;;;1.50;;
41275;SDS011;27010;47.718;12.912;2024-01-16T08:16:37;3.23;;;1.83;;
41275;SDS011;27010;47.718;12.912;2024-01-16T08:19:40;2.73;;;2.07;;
41275;SDS011;27010;47.718;12.912;2024-01-16T08:22:43;8.37;;;2.03;;
41275;SDS011;27010;47.718;12.912;2024-01-16T08:25:45;3.07;;;2.20;;
41275;SDS011;27010;47.718;12.912;2024-01-16T08:28:48;3.27;;;1.50;;
41275;SDS011;27010;47.718;12.912;2024-01-16T08:31:50;3.40;;;1.70;;
41275;SDS011;27010;47.718;12.912;2024-01-16T08:34:55;3.17;;;1.40;;
41275;SDS011;27010;47.718;12.912;2024-01-16T08:37:57;1.47;;;1.30;;
41275;SDS011;27010;47.718;12.912;2024-01-16T08:40:59;4.30;;;1.70;;
41275;SDS011;27010;47.718;12.912;2024-01-16T08:44:01;2.43;;;1.57;;
41275;SDS011;27010;47.718;12.912;2024-01-16T08:47:04;2.60;;;1.60;;
41275;SDS011;27010;47.718;12.912;2024-01-16T08:50:07;2.50;;;1.53;;
41275;SDS011;27010;47.718;12.912;2024-01-16T08:53:11;8.47;;;2.03;;
41275;SDS011;27010;47.718;12.912;2024-01-16T08:56:13;4.53;;;2.17;;
41275;SDS011;27010;47.718;12.912;2024-01-16T08:59:15;2.07;;;1.43;;
41275;SDS011;27010;47.718;12.912;2024-01-16T09:02:16;4.90;;;1.70;;
41275;SDS011;27010;47.718;12.912;2024-01-16T09:05:19;4.43;;;1.80;;
41275;SDS011;27010;47.718;12.912;2024-01-16T09:08:27;6.33;;;1.97;;
41275;SDS011;27010;47.718;12.912;2024-01-16T09:11:29;4.97;;;2.03;;
41275;SDS011;27010;47.718;12.912;2024-01-16T09:14:31;3.87;;;2.10;;
41275;SDS011;27010;47.718;12.912;2024-01-16T09:17:33;5.63;;;3.03;;
41275;SDS011;27010;47.718;12.912;2024-01-16T09:20:35;4.00;;;2.20;;
41275;SDS011;27010;47.718;12.912;2024-01-16T09:23:38;4.43;;;2.63;;
41275;SDS011;27010;47.718;12.912;2024-01-16T09:26:40;9.10;;;3.70;;
41275;SDS011;27010;47.718;12.912;2024-01-16T09:29:42;12.10;;;5.57;;
41275;SDS011;27010;47.718;12.912;2024-01-16T09:32:45;18.20;;;7.43;;
41275;SDS011;27010;47.718;12.912;2024-01-16T09:35:47;13.37;;;7.03;;
41275;SDS011;27010;47.718;12.912;2024-01-16T09:38:49;11.30;;;5.37;;
41275;SDS011;27010;47.718;12.912;2024-01-16T09:41:52;8.33;;;3.53;;
41275;SDS011;27010;47.718;12.912;2024-01-16T09:44:54;11.50;;;3.97;;
41275;SDS011;27010;47.718;12.912;2024-01-16T09:47:57;9.60;;;3.30;;
41275;SDS011;27010;47.718;12.912;2024-01-16T09:51:01;6.23;;;3.87;;
41275;SDS011;27010;47.718;12.912;2024-01-16T09:54:03;8.53;;;3.63;;
41275;SDS011;27010;47.718;12.912;2024-01-16T09:57:10;4.70;;;3.07;;
41275;SDS011;27010;47.718;12.912;2024-01-16T10:00:14;4.93;;;2.97;;
41275;SDS011;27010;47.718;12.912;2024-01-16T10:03:17;6.93;;;3.07;;
41275;SDS011;27010;47.718;12.912;2024-01-16T10:06:20;7.57;;;3.27;;
41275;SDS011;27010;47.718;12.912;2024-01-16T10:09:23;6.23;;;3.60;;
41275;SDS011;27010;47.718;12.912;2024-01-16T10:12:25;4.83;;;2.90;;
41275;SDS011;27010;47.718;12.912;2024-01-16T10:15:27;7.20;;;3.10;;
41275;SDS011;27010;47.718;12.912;2024-01-16T10:18:29;8.97;;;5.77;;
41275;SDS011;27010;47.718;12.912;2024-01-16T10:21:32;11.10;;;6.20;;
41275;SDS011;27010;47.718;12.912;2024-01-16T10:24:34;15.97;;;8.40;;
41275;SDS011;27010;47.718;12.912;2024-01-16T10:27:37;17.73;;;8.87;;
41275;SDS011;27010;47.718;12.912;2024-01-16T10:30:40;13.77;;;6.03;;
41275;SDS011;27010;47.718;12.912;2024-01-16T10:33:42;10.23;;;3.70;;
41275;SDS011;27010;47.718;12.912;2024-01-16T10:36:46;5.23;;;2.60;;
41275;SDS011;27010;47.718;12.912;2024-01-16T10:39:50;4.83;;;2.90;;
41275;SDS011;27010;47.718;12.912;2024-01-16T10:43:05;4.10;;;2.43;;
41275;SDS011;27010;47.718;12.912;2024-01-16T10:46:13;3.80;;;2.27;;
41275;SDS011;27010;47.718;12.912;2024-01-16T10:49:16;4.83;;;2.40;;
41275;SDS011;27010;47.718;12.912;2024-01-16T10:52:18;5.07;;;2.00;;
41275;SDS011;27010;47.718;12.912;2024-01-16T10:55:22;4.60;;;2.13;;
41275;SDS011;27010;47.718;12.912;2024-01-16T10:58:24;3.30;;;1.97;;
41275;SDS011;27010;47.718;12.912;2024-01-16T11:01:32;5.20;;;2.10;;
41275;SDS011;27010;47.718;12.912;2024-01-16T11:04:34;5.93;;;2.20;;
41275;SDS011;27010;47.718;12.912;2024-01-16T11:07:36;3.13;;;1.80;;
41275;SDS011;27010;47.718;12.912;2024-01-16T11:10:38;3.03;;;2.10;;
41275;SDS011;27010;47.718;12.912;2024-01-16T11:13:41;4.33;;;1.87;;
41275;SDS011;27010;47.718;12.912;2024-01-16T11:16:46;1.83;;;1.60;;
41275;SDS011;27010;47.718;12.912;2024-01-16T11:19:48;3.13;;;1.60;;
41275;SDS011;27010;47.718;12.912;2024-01-16T11:23:11;3.10;;;1.90;;
41275;SDS011;27010;47.718;12.912;2024-01-16T11:26:24;2.40;;;1.40;;
41275;SDS011;27010;47.718;12.912;2024-01-16T11:32:39;1.97;;;1.37;;
41275;SDS011;27010;47.718;12.912;2024-01-16T11:35:43;5.47;;;2.10;;
41275;SDS011;27010;47.718;12.912;2024-01-16T11:38:45;2.60;;;1.70;;
41275;SDS011;27010;47.718;12.912;2024-01-16T11:41:48;2.60;;;1.40;;
41275;SDS011;27010;47.718;12.912;2024-01-16T11:44:53;2.33;;;1.40;;
41275;SDS011;27010;47.718;12.912;2024-01-16T11:51:23;4.03;;;1.97;;
41275;SDS011;27010;47.718;12.912;2024-01-16T11:54:27;5.37;;;2.27;;
41275;SDS011;27010;47.718;12.912;2024-01-16T12:00:54;3.03;;;2.00;;
41275;SDS011;27010;47.718;12.912;2024-01-16T12:04:02;3.57;;;1.70;;
41275;SDS011;27010;47.718;12.912;2024-01-16T12:07:06;2.63;;;1.73;;
41275;SDS011;27010;47.718;12.912;2024-01-16T12:10:08;3.30;;;2.00;;
41275;SDS011;27010;47.718;12.912;2024-01-16T12:13:11;2.43;;;1.70;;
41275;SDS011;27010;47.718;12.912;2024-01-16T12:16:18;3.73;;;2.30;;
41275;SDS011;27010;47.718;12.912;2024-01-16T12:19:21;2.90;;;2.10;;
41275;SDS011;27010;47.718;12.912;2024-01-16T12:22:24;5.27;;;2.23;;
41275;SDS011;27010;47.718;12.912;2024-01-16T12:25:27;4.00;;;2.10;;
41275;SDS011;27010;47.718;12.912;2024-01-16T12:28:53;4.60;;;2.30;;
41275;SDS011;27010;47.718;12.912;2024-01-16T12:32:12;2.50;;;1.83;;
41275;SDS011;27010;47.718;12.912;2024-01-16T12:35:20;2.43;;;1.60;;
41275;SDS011;27010;47.718;12.912;2024-01-16T12:38:23;3.53;;;1.87;;
41275;SDS011;27010;47.718;12.912;2024-01-16T12:41:26;3.53;;;2.13;;
41275;SDS011;27010;47.718;12.912;2024-01-16T12:44:42;3.00;;;2.00;;
41275;SDS011;27010;47.718;12.912;2024-01-16T12:47:44;4.37;;;2.30;;
41275;SDS011;27010;47.718;12.912;2024-01-16T12:50:46;2.80;;;1.80;;
41275;SDS011;27010;47.718;12.912;2024-01-16T12:53:48;4.00;;;2.27;;
41275;SDS011;27010;47.718;12.912;2024-01-16T12:56:57;2.70;;;2.00;;
41275;SDS011;27010;47.718;12.912;2024-01-16T13:00:00;5.50;;;2.87;;
41275;SDS011;27010;47.718;12.912;2024-01-16T13:03:07;5.33;;;2.37;;
41275;SDS011;27010;47.718;12.912;2024-01-16T13:06:16;5.67;;;2.40;;
41275;SDS011;27010;47.718;12.912;2024-01-16T13:09:19;10.67;;;4.03;;
41275;SDS011;27010;47.718;12.912;2024-01-16T13:12:25;6.07;;;2.50;;
41275;SDS011;27010;47.718;12.912;2024-01-16T13:15:30;3.30;;;2.20;;
41275;SDS011;27010;47.718;12.912;2024-01-16T13:18:32;4.77;;;3.50;;
41275;SDS011;27010;47.718;12.912;2024-01-16T13:21:35;4.33;;;2.80;;
41275;SDS011;27010;47.718;12.912;2024-01-16T13:24:38;5.63;;;2.27;;
41275;SDS011;27010;47.718;12.912;2024-01-16T13:27:42;4.17;;;2.27;;
41275;SDS011;27010;47.718;12.912;2024-01-16T13:30:44;4.33;;;2.53;;
41275;SDS011;27010;47.718;12.912;2024-01-16T13:33:48;6.67;;;2.53;;
41275;SDS011;27010;47.718;12.912;2024-01-16T13:36:50;5.70;;;2.43;;
41275;SDS011;27010;47.718;12.912;2024-01-16T13:40:13;5.13;;;2.80;;
41275;SDS011;27010;47.718;12.912;2024-01-16T13:43:22;3.97;;;2.07;;
41275;SDS011;27010;47.718;12.912;2024-01-16T13:46:24;4.67;;;2.30;;
41275;SDS011;27010;47.718;12.912;2024-01-16T13:49:47;2.40;;;1.80;;
41275;SDS011;27010;47.718;12.912;2024-01-16T13:52:49;4.73;;;3.13;;
41275;SDS011;27010;47.718;12.912;2024-01-16T13:55:52;3.13;;;2.60;;
41275;SDS011;27010;47.718;12.912;2024-01-16T13:58:54;7.70;;;2.63;;
41275;SDS011;27010;47.718;12.912;2024-01-16T14:01:56;5.87;;;3.23;;
41275;SDS011;27010;47.718;12.912;2024-01-16T14:04:58;5.27;;;2.70;;
41275;SDS011;27010;47.718;12.912;2024-01-16T14:08:01;4.73;;;2.13;;
41275;SDS011;27010;47.718;12.912;2024-01-16T14:20:25;4.50;;;2.37;;
41275;SDS011;27010;47.718;12.912;2024-01-16T14:23:29;4.27;;;2.57;;
41275;SDS011;27010;47.718;12.912;2024-01-16T14:26:31;5.70;;;2.77;;
41275;SDS011;27010;47.718;12.912;2024-01-16T14:29:34;5.23;;;2.77;;
41275;SDS011;27010;47.718;12.912;2024-01-16T14:32:43;6.90;;;2.87;;
41275;SDS011;27010;47.718;12.912;2024-01-16T14:35:46;3.67;;;2.10;;
41275;SDS011;27010;47.718;12.912;2024-01-16T14:38:48;5.90;;;2.83;;
41275;SDS011;27010;47.718;12.912;2024-01-16T15:43:37;9.03;;;4.83;;
41275;SDS011;27010;47.718;12.912;2024-01-16T15:46:55;18.47;;;8.43;;
41275;SDS011;27010;47.718;12.912;2024-01-16T15:50:04;12.47;;;6.70;;
41275;SDS011;27010;47.718;12.912;2024-01-16T15:53:06;14.70;;;7.47;;
41275;SDS011;27010;47.718;12.912;2024-01-16T15:56:08;11.73;;;6.27;;
41275;SDS011;27010;47.718;12.912;2024-01-16T15:59:11;8.67;;;5.10;;
41275;SDS011;27010;47.718;12.912;2024-01-16T16:02:13;6.03;;;3.53;;
41275;SDS011;27010;47.718;12.912;2024-01-16T16:05:16;5.57;;;3.17;;
41275;SDS011;27010;47.718;12.912;2024-01-16T16:08:18;7.77;;;3.47;;
41275;SDS011;27010;47.718;12.912;2024-01-16T16:11:22;5.77;;;3.53;;
41275;SDS011;27010;47.718;12.912;2024-01-16T16:14:27;6.83;;;3.73;;
41275;SDS011;27010;47.718;12.912;2024-01-16T16:17:32;9.20;;;4.23;;
41275;SDS011;27010;47.718;12.912;2024-01-16T16:20:35;5.77;;;3.87;;
41275;SDS011;27010;47.718;12.912;2024-01-16T16:23:38;4.70;;;3.27;;
41275;SDS011;27010;47.718;12.912;2024-01-16T16:26:40;5.90;;;3.50;;
41275;SDS011;27010;47.718;12.912;2024-01-16T16:29:44;6.67;;;3.77;;
41275;SDS011;27010;47.718;12.912;2024-01-16T16:32:47;6.40;;;3.83;;
41275;SDS011;27010;47.718;12.912;2024-01-16T16:35:52;5.60;;;3.23;;
41275;SDS011;27010;47.718;12.912;2024-01-16T16:38:56;6.23;;;3.60;;
41275;SDS011;27010;47.718;12.912;2024-01-16T16:41:59;6.37;;;3.13;;
41275;SDS011;27010;47.718;12.912;2024-01-16T16:45:15;6.13;;;3.23;;
41275;SDS011;27010;47.718;12.912;2024-01-16T16:48:18;4.00;;;2.90;;
41275;SDS011;27010;47.718;12.912;2024-01-16T16:51:21;9.20;;;3.93;;
41275;SDS011;27010;47.718;12.912;2024-01-16T16:54:25;6.30;;;3.67;;
41275;SDS011;27010;47.718;12.912;2024-01-16T16:57:28;8.53;;;4.47;;
41275;SDS011;27010;47.718;12.912;2024-01-16T17:05:25;3.53;;;2.47;;
41275;SDS011;27010;47.718;12.912;2024-01-16T17:08:28;8.73;;;3.53;;
41275;SDS011;27010;47.718;12.912;2024-01-16T17:11:31;4.07;;;2.23;;
41275;SDS011;27010;47.718;12.912;2024-01-16T17:14:33;4.40;;;2.90;;
41275;SDS011;27010;47.718;12.912;2024-01-16T17:17:41;4.70;;;2.20;;
41275;SDS011;27010;47.718;12.912;2024-01-16T17:25:54;3.40;;;2.23;;
41275;SDS011;27010;47.718;12.912;2024-01-16T17:34:34;4.40;;;2.33;;
41275;SDS011;27010;47.718;12.912;2024-01-16T17:38:54;3.67;;;2.27;;
41275;SDS011;27010;47.718;12.912;2024-01-16T17:42:22;3.57;;;1.87;;
41275;SDS011;27010;47.718;12.912;2024-01-16T17:54:59;2.27;;;1.90;;
41275;SDS011;27010;47.718;12.912;2024-01-16T17:58:08;3.53;;;2.07;;
41275;SDS011;27010;47.718;12.912;2024-01-16T18:01:10;3.03;;;1.93;;
41275;SDS011;27010;47.718;12.912;2024-01-16T18:04:13;5.43;;;1.97;;
41275;SDS011;27010;47.718;12.912;2024-01-16T18:12:49;2.97;;;2.17;;
41275;SDS011;27010;47.718;12.912;2024-01-16T18:22:17;5.40;;;3.30;;
41275;SDS011;27010;47.718;12.912;2024-01-16T18:26:02;4.03;;;2.23;;
41275;SDS011;27010;47.718;12.912;2024-01-16T18:35:22;5.50;;;2.30;;
41275;SDS011;27010;47.718;12.912;2024-01-16T18:39:38;2.83;;;2.37;;
41275;SDS011;27010;47.718;12.912;2024-01-16T18:52:21;3.00;;;2.20;;
41275;SDS011;27010;47.718;12.912;2024-01-16T19:00:29;2.73;;;1.70;;
41275;SDS011;27010;47.718;12.912;2024-01-16T19:04:46;2.43;;;1.53;;
41275;SDS011;27010;47.718;12.912;2024-01-16T19:07:49;3.73;;;2.23;;
41275;SDS011;27010;47.718;12.912;2024-01-16T19:10:56;3.40;;;2.20;;
41275;SDS011;27010;47.718;12.912;2024-01-16T19:14:06;4.57;;;2.10;;
41275;SDS011;27010;47.718;12.912;2024-01-16T19:17:14;3.60;;;2.00;;
41275;SDS011;27010;47.718;12.912;2024-01-16T19:25:37;5.30;;;2.50;;
41275;SDS011;27010;47.718;12.912;2024-01-16T19:30:07;4.70;;;2.57;;
41275;SDS011;27010;47.718;12.912;2024-01-16T19:34:24;3.23;;;2.00;;
41275;SDS011;27010;47.718;12.912;2024-01-16T19:39:05;2.77;;;1.77;;
41275;SDS011;27010;47.718;12.912;2024-01-16T19:46:43;7.73;;;1.60;;
41275;SDS011;27010;47.718;12.912;2024-01-16T19:49:45;4.67;;;2.47;;
41275;SDS011;27010;47.718;12.912;2024-01-16T19:52:47;5.33;;;3.23;;
41275;SDS011;27010;47.718;12.912;2024-01-16T19:55:52;7.87;;;2.80;;
41275;SDS011;27010;47.718;12.912;2024-01-16T19:58:56;5.67;;;2.40;;
41275;SDS011;27010;47.718;12.912;2024-01-16T20:01:59;2.17;;;1.53;;
41275;SDS011;27010;47.718;12.912;2024-01-16T20:05:01;4.77;;;1.83;;
41275;SDS011;27010;47.718;12.912;2024-01-16T20:08:03;3.00;;;1.50;;
41275;SDS011;27010;47.718;12.912;2024-01-16T20:11:05;2.00;;;1.33;;
41275;SDS011;27010;47.718;12.912;2024-01-16T20:14:07;3.10;;;1.67;;
41275;SDS011;27010;47.718;12.912;2024-01-16T20:17:11;4.47;;;2.40;;
41275;SDS011;27010;47.718;12.912;2024-01-16T20:20:13;5.30;;;3.03;;
41275;SDS011;27010;47.718;12.912;2024-01-16T20:23:15;6.80;;;2.70;;
41275;SDS011;27010;47.718;12.912;2024-01-16T20:26:18;9.20;;;3.20;;
41275;SDS011;27010;47.718;12.912;2024-01-16T20:29:20;1.90;;;1.70;;
41275;SDS011;27010;47.718;12.912;2024-01-16T20:32:22;3.53;;;1.80;;
41275;SDS011;27010;47.718;12.912;2024-01-16T20:35:25;3.33;;;1.70;;
41275;SDS011;27010;47.718;12.912;2024-01-16T20:38:27;5.47;;;1.70;;
41275;SDS011;27010;47.718;12.912;2024-01-16T20:41:28;3.07;;;1.60;;
41275;SDS011;27010;47.718;12.912;2024-01-16T20:44:31;4.70;;;2.53;;
41275;SDS011;27010;47.718;12.912;2024-01-16T20:47:34;5.53;;;2.47;;
41275;SDS011;27010;47.718;12.912;2024-01-16T20:50:37;2.30;;;1.50;;
41275;SDS011;27010;47.718;12.912;2024-01-16T20:53:39;9.03;;;5.37;;